Taasinge Maersk — OUSX2 — position and weather

sailwx.info

Track history (hours):
 
Tides and Currents Weather Stations Pressure Air Temp Water Temp Dewpoint Dewpoint Depression Visibility Wind Speed Wind Dir Waves Ship Positions

Taasinge Maersk

Last reported at 2014-Dec-15 00:33 UTC. Time now 2014-Dec-20 04:29 UTC.
Position N 35°58' W 005°33'.

Length 191 m; draft 9 m.

Type: Cargo ship. MMSI: 220157000.

Date/timePositionNaut miles runAvg speedWind from/ knotsBaromVisibWave heightAir tempDewpointWater temp
2014-Dec-15 00:33N 35°58' W 005°33'7 7.1
2014-Dec-14 23:33N 36°00' W 005°25'9 7.4
2014-Dec-14 22:23N 36°09' W 005°26'0 0.2
2014-Dec-14 21:31N 36°09' W 005°26'0 0.0
2014-Dec-14 20:07N 36°09' W 005°26'0 0.0
2014-Dec-14 18:28N 36°09' W 005°26'0 0.0
2014-Dec-14 17:19N 36°09' W 005°26'0 0.0
2014-Dec-14 16:24N 36°09' W 005°26'0 0.0
2014-Dec-14 13:32N 36°09' W 005°26'0 0.0
2014-Dec-14 12:20N 36°09' W 005°26'0 0.0
2014-Dec-14 11:14N 36°09' W 005°26'0 0.0
2014-Dec-14 10:29N 36°09' W 005°26'0 0.0
2014-Dec-14 08:11N 36°09' W 005°26'0 0.0
2014-Dec-14 07:23N 36°09' W 005°26'0 0.0
2014-Dec-14 06:17N 36°09' W 005°26'0 0.0
2014-Dec-14 05:11N 36°09' W 005°26'0 0.0
2014-Dec-14 04:29N 36°09' W 005°26'0 0.0
2014-Dec-14 03:32N 36°09' W 005°26'0 0.0
2014-Dec-14 02:26N 36°09' W 005°26'0 0.0
2014-Dec-14 01:33N 36°09' W 005°26'2 2.4
2014-Dec-14 00:34N 36°08' W 005°24'8 7.8
2014-Dec-13 23:33N 35°60' W 005°23'11 0.5
2014-Dec-12 22:15N 35°53' W 005°35'  
Track history (hours):
 
Tides and Currents Weather Stations Pressure Air Temp Water Temp Dewpoint Dewpoint Depression Visibility Wind Speed Wind Dir Waves Ship Positions

Taasinge Maersk

Last reported at 2014-Dec-15 00:33 UTC. Time now 2014-Dec-20 04:29 UTC.
Position N 35°58' W 005°33'.

Length 191 m; draft 9 m.

Type: Cargo ship. MMSI: 220157000.

Date/timePositionNaut miles runAvg speedWind from/ knotsBaromVisibWave heightAir tempDewpointWater temp
2014-Dec-15 00:33N 35°58' W 005°33'7 7.1
2014-Dec-14 23:33N 36°00' W 005°25'9 7.4
2014-Dec-14 22:23N 36°09' W 005°26'0 0.2
2014-Dec-14 21:31N 36°09' W 005°26'0 0.0
2014-Dec-14 20:07N 36°09' W 005°26'0 0.0
2014-Dec-14 18:28N 36°09' W 005°26'0 0.0
2014-Dec-14 17:19N 36°09' W 005°26'0 0.0
2014-Dec-14 16:24N 36°09' W 005°26'0 0.0
2014-Dec-14 13:32N 36°09' W 005°26'0 0.0
2014-Dec-14 12:20N 36°09' W 005°26'0 0.0
2014-Dec-14 11:14N 36°09' W 005°26'0 0.0
2014-Dec-14 10:29N 36°09' W 005°26'0 0.0
2014-Dec-14 08:11N 36°09' W 005°26'0 0.0
2014-Dec-14 07:23N 36°09' W 005°26'0 0.0
2014-Dec-14 06:17N 36°09' W 005°26'0 0.0
2014-Dec-14 05:11N 36°09' W 005°26'0 0.0
2014-Dec-14 04:29N 36°09' W 005°26'0 0.0
2014-Dec-14 03:32N 36°09' W 005°26'0 0.0
2014-Dec-14 02:26N 36°09' W 005°26'0 0.0
2014-Dec-14 01:33N 36°09' W 005°26'2 2.4
2014-Dec-14 00:34N 36°08' W 005°24'8 7.8
2014-Dec-13 23:33N 35°60' W 005°23'11 0.5
2014-Dec-12 22:15N 35°53' W 005°35'  

Dump ship's entire track history